createdAt,value
2022-11-18T00:01:11.951Z,2.30
2022-11-18T00:04:00.086Z,2.30
2022-11-18T00:06:47.604Z,2.30
2022-11-18T00:09:35.317Z,2.20
2022-11-18T00:12:40.285Z,2.20
2022-11-18T00:15:31.707Z,2.20
2022-11-18T00:18:20.881Z,2.20
2022-11-18T00:21:10.538Z,2.20
2022-11-18T00:23:58.156Z,2.20
2022-11-18T00:26:45.994Z,2.20
2022-11-18T00:29:34.272Z,2.20
2022-11-18T00:32:22.038Z,2.20
2022-11-18T00:35:11.164Z,2.10
2022-11-18T00:37:58.998Z,2.20
2022-11-18T00:40:46.650Z,2.20
2022-11-18T00:43:34.354Z,2.20
2022-11-18T00:46:21.907Z,2.20
2022-11-18T00:49:09.967Z,2.20
2022-11-18T00:51:59.208Z,2.20
2022-11-18T00:54:47.144Z,2.10
2022-11-18T00:57:38.515Z,2.10
2022-11-18T01:00:26.388Z,2.10
2022-11-18T01:03:14.326Z,2.10
2022-11-18T01:06:02.045Z,2.10
2022-11-18T01:08:51.376Z,2.10
2022-11-18T01:11:56.443Z,2.10
2022-11-18T01:14:44.083Z,2.10
2022-11-18T01:17:32.263Z,2.00
2022-11-18T01:20:19.972Z,2.00
2022-11-18T01:23:07.724Z,2.00
2022-11-18T01:25:57.249Z,2.00
2022-11-18T01:28:45.255Z,2.00
2022-11-18T01:31:33.082Z,2.00
2022-11-18T01:34:20.518Z,2.00
2022-11-18T01:37:08.757Z,2.00
2022-11-18T01:39:56.496Z,2.00
2022-11-18T01:42:45.450Z,1.90
2022-11-18T01:45:35.567Z,1.90
2022-11-18T01:48:27.833Z,1.90
2022-11-18T01:51:19.171Z,1.90
2022-11-18T01:54:10.388Z,1.90
2022-11-18T01:57:01.738Z,1.80
2022-11-18T01:59:55.167Z,1.80
2022-11-18T02:02:46.999Z,1.80
2022-11-18T02:05:36.698Z,1.80
2022-11-18T02:08:24.808Z,1.80
2022-11-18T02:11:34.373Z,1.80
2022-11-18T02:14:25.472Z,1.80
2022-11-18T02:17:24.316Z,1.80
2022-11-18T02:20:25.210Z,1.80
2022-11-18T02:23:41.513Z,1.80
2022-11-18T02:27:21.291Z,1.80
2022-11-18T02:30:12.207Z,1.80
2022-11-18T02:33:07.968Z,1.80
2022-11-18T02:36:03.314Z,1.80
2022-11-18T02:38:56.052Z,1.80
2022-11-18T02:41:47.152Z,1.80
2022-11-18T02:44:37.642Z,1.80
2022-11-18T02:47:30.557Z,1.80
2022-11-18T02:50:22.538Z,1.80
2022-11-18T02:53:14.050Z,1.80
2022-11-18T02:56:03.811Z,1.80
2022-11-18T02:58:51.546Z,1.80
2022-11-18T03:01:39.832Z,1.80
2022-11-18T03:04:29.344Z,1.80
2022-11-18T03:07:24.414Z,1.80
2022-11-18T03:10:12.626Z,1.80
2022-11-18T03:13:07.325Z,1.80
2022-11-18T03:16:04.150Z,1.70
2022-11-18T03:18:58.251Z,1.80
2022-11-18T03:21:53.437Z,1.80
2022-11-18T03:24:44.797Z,1.70
2022-11-18T03:27:37.348Z,1.70
2022-11-18T03:30:26.224Z,1.70
2022-11-18T03:33:18.598Z,1.70
2022-11-18T03:36:10.677Z,1.70
2022-11-18T03:39:03.143Z,1.70
2022-11-18T03:41:54.922Z,1.70
2022-11-18T03:44:52.249Z,1.70
2022-11-18T03:47:43.530Z,1.70
2022-11-18T03:50:35.365Z,1.60
2022-11-18T03:53:25.931Z,1.60
2022-11-18T03:56:18.512Z,1.60
2022-11-18T03:59:12.986Z,1.60
2022-11-18T04:02:07.648Z,1.60
2022-11-18T04:04:58.091Z,1.60
2022-11-18T04:07:54.074Z,1.60
2022-11-18T04:10:49.010Z,1.60
2022-11-18T04:13:39.510Z,1.50
2022-11-18T04:16:27.203Z,1.50
2022-11-18T04:19:15.099Z,1.40
2022-11-18T04:22:03.112Z,1.40
2022-11-18T04:24:50.623Z,1.40
2022-11-18T04:27:38.464Z,1.40
2022-11-18T04:30:27.491Z,1.40
2022-11-18T04:33:15.088Z,1.40
2022-11-18T04:36:02.652Z,1.40
2022-11-18T04:38:50.501Z,1.40
2022-11-18T04:41:55.612Z,1.30
2022-11-18T04:44:43.039Z,1.30
2022-11-18T04:47:31.951Z,1.30
2022-11-18T04:50:19.885Z,1.30
2022-11-18T04:53:07.795Z,1.30
2022-11-18T04:55:55.743Z,1.20
2022-11-18T04:58:43.541Z,1.20
2022-11-18T05:01:31.187Z,1.20
2022-11-18T05:04:22.060Z,1.10
2022-11-18T05:07:09.926Z,1.10
2022-11-18T05:09:57.863Z,1.10
2022-11-18T05:12:50.691Z,1.10
2022-11-18T05:15:38.420Z,1.10
2022-11-18T05:18:26.063Z,1.00
2022-11-18T05:21:15.282Z,1.00
2022-11-18T05:24:05.007Z,1.00
2022-11-18T05:26:53.482Z,1.00
2022-11-18T05:29:41.304Z,1.00
2022-11-18T05:32:28.912Z,1.00
2022-11-18T05:35:16.818Z,0.90
2022-11-18T05:38:05.793Z,0.90
2022-11-18T05:40:53.267Z,0.90
2022-11-18T05:43:39.696Z,0.90
2022-11-18T05:46:28.387Z,0.90
2022-11-18T05:49:16.430Z,0.80
2022-11-18T05:52:05.087Z,0.80
2022-11-18T05:54:54.359Z,0.80
2022-11-18T05:57:41.781Z,0.80
2022-11-18T06:00:30.499Z,0.80
2022-11-18T06:03:23.909Z,0.80
2022-11-18T06:06:18.710Z,0.80
2022-11-18T06:09:08.076Z,0.80
2022-11-18T06:11:59.676Z,0.80
2022-11-18T06:14:51.885Z,0.80
2022-11-18T06:17:44.619Z,0.80
2022-11-18T06:20:36.770Z,0.80
2022-11-18T06:23:24.997Z,0.80
2022-11-18T06:26:16.760Z,0.70
2022-11-18T06:29:07.947Z,0.70
2022-11-18T06:31:55.722Z,0.70
2022-11-18T06:34:43.285Z,0.70
2022-11-18T06:37:32.487Z,0.70
2022-11-18T06:40:20.398Z,0.70
2022-11-18T06:43:27.284Z,0.70
2022-11-18T06:46:35.987Z,0.70
2022-11-18T06:49:25.229Z,0.60
2022-11-18T06:52:12.983Z,0.70
2022-11-18T06:55:00.817Z,0.70
2022-11-18T06:57:48.623Z,0.60
2022-11-18T07:00:36.581Z,0.60
2022-11-18T07:03:25.375Z,0.60
2022-11-18T07:06:14.336Z,0.60
2022-11-18T07:09:03.073Z,0.60
2022-11-18T07:11:51.017Z,0.60
2022-11-18T07:14:39.040Z,0.50
2022-11-18T07:17:27.292Z,0.60
2022-11-18T07:20:16.757Z,0.60
2022-11-18T07:23:04.774Z,0.50
2022-11-18T07:25:55.830Z,0.50
2022-11-18T07:28:44.166Z,0.50
2022-11-18T07:31:32.525Z,0.60
2022-11-18T07:34:20.354Z,0.60
2022-11-18T07:37:09.516Z,0.70
2022-11-18T07:39:59.821Z,0.60
2022-11-18T07:42:47.667Z,0.60
2022-11-18T07:45:44.412Z,0.70
2022-11-18T07:48:32.181Z,0.70
2022-11-18T07:51:21.566Z,0.70
2022-11-18T07:54:11.938Z,0.70
2022-11-18T07:56:59.612Z,0.60
2022-11-18T07:59:47.817Z,0.60
2022-11-18T08:02:35.700Z,0.70
2022-11-18T08:05:23.303Z,0.70
2022-11-18T08:08:11.023Z,0.70
2022-11-18T08:11:01.850Z,0.70
2022-11-18T08:13:49.579Z,0.70
2022-11-18T08:16:37.572Z,0.80
2022-11-18T08:19:25.300Z,0.80
2022-11-18T08:22:13.148Z,0.80
2022-11-18T08:25:00.925Z,0.90
2022-11-18T08:27:49.927Z,0.90
2022-11-18T08:30:38.088Z,0.90
2022-11-18T08:33:26.060Z,0.90
2022-11-18T08:36:16.934Z,0.90
2022-11-18T08:39:06.920Z,0.80
2022-11-18T08:41:54.676Z,0.90
2022-11-18T08:44:43.873Z,0.90
2022-11-18T08:47:31.774Z,0.90
2022-11-18T08:50:19.647Z,0.90
2022-11-18T08:53:07.220Z,0.90
2022-11-18T08:55:57.601Z,0.90
2022-11-18T08:58:45.566Z,0.90
2022-11-18T09:01:34.622Z,0.90
2022-11-18T09:04:22.240Z,0.90
2022-11-18T09:07:09.811Z,1.00
2022-11-18T09:09:57.347Z,1.00
2022-11-18T09:12:44.882Z,1.10
2022-11-18T09:15:32.941Z,1.20
2022-11-18T09:18:21.992Z,1.20
2022-11-18T09:21:11.380Z,1.20
2022-11-18T09:23:59.082Z,1.30
2022-11-18T09:26:48.195Z,1.30
2022-11-18T09:29:35.758Z,1.40
2022-11-18T09:32:24.011Z,1.30
2022-11-18T09:35:12.772Z,1.30
2022-11-18T09:38:00.497Z,1.30
2022-11-18T09:40:56.960Z,1.30
2022-11-18T09:43:58.737Z,1.30
2022-11-18T09:46:58.003Z,1.30
2022-11-18T09:49:47.090Z,1.20
2022-11-18T09:52:44.676Z,1.20
2022-11-18T09:55:35.812Z,1.30
2022-11-18T09:58:32.326Z,1.40
2022-11-18T10:01:21.504Z,1.50
2022-11-18T10:04:16.230Z,1.50
2022-11-18T10:07:09.326Z,1.40
2022-11-18T10:09:59.511Z,1.40
2022-11-18T10:12:53.675Z,1.40
2022-11-18T10:15:49.432Z,1.50
2022-11-18T10:19:00.623Z,1.50
2022-11-18T10:21:56.705Z,1.60
2022-11-18T10:24:50.010Z,1.70
2022-11-18T10:27:40.862Z,1.80
2022-11-18T10:30:28.802Z,1.80
2022-11-18T10:33:26.541Z,1.80
2022-11-18T10:36:28.266Z,1.70
2022-11-18T10:39:17.257Z,1.70
2022-11-18T10:42:07.170Z,1.60
2022-11-18T10:44:57.165Z,1.60
2022-11-18T10:47:59.132Z,1.60
2022-11-18T10:50:53.522Z,1.50
2022-11-18T10:53:43.848Z,1.50
2022-11-18T10:56:46.513Z,1.40
2022-11-18T10:59:36.327Z,1.30
2022-11-18T11:02:31.212Z,1.30
2022-11-18T11:05:21.714Z,1.30
2022-11-18T11:08:36.571Z,1.30
2022-11-18T11:11:28.692Z,1.30
2022-11-18T11:14:28.214Z,1.30
2022-11-18T11:17:18.429Z,1.30
2022-11-18T11:20:18.617Z,1.20
2022-11-18T11:23:10.766Z,1.20
2022-11-18T11:29:22.219Z,1.00
2022-11-18T11:32:18.209Z,1.10
2022-11-18T11:35:15.688Z,1.10
2022-11-18T11:38:13.591Z,1.10
2022-11-18T11:41:08.114Z,1.10
2022-11-18T11:44:16.301Z,1.00
2022-11-18T11:47:31.635Z,0.90
2022-11-18T11:50:28.945Z,0.90
2022-11-18T11:53:21.836Z,0.80
2022-11-18T11:56:22.203Z,0.80
2022-11-18T11:59:27.000Z,0.80
2022-11-18T12:02:33.685Z,0.80
2022-11-18T12:05:27.479Z,0.80
2022-11-18T12:08:18.234Z,0.70
2022-11-18T12:11:14.422Z,0.70
2022-11-18T12:14:06.458Z,0.70
2022-11-18T12:16:59.950Z,0.70
2022-11-18T12:19:47.690Z,0.70
2022-11-18T12:23:08.364Z,0.70
2022-11-18T12:26:01.386Z,0.70
2022-11-18T12:28:49.010Z,0.70
2022-11-18T12:31:36.991Z,0.60
2022-11-18T12:34:32.566Z,0.50
2022-11-18T12:37:38.628Z,0.50
2022-11-18T12:40:40.511Z,0.50
2022-11-18T12:44:01.197Z,0.40
2022-11-18T12:46:50.715Z,0.40
2022-11-18T12:50:12.793Z,0.30
2022-11-18T12:53:00.484Z,0.30
2022-11-18T12:55:48.390Z,0.30
2022-11-18T12:58:36.265Z,0.30
2022-11-18T13:01:26.322Z,0.30
2022-11-18T13:04:16.790Z,0.30
2022-11-18T13:07:05.287Z,0.30
2022-11-18T13:09:52.951Z,0.30
2022-11-18T13:12:50.509Z,0.30
2022-11-18T13:16:01.101Z,0.20
2022-11-18T13:18:50.648Z,0.20
2022-11-18T13:21:57.451Z,0.20
2022-11-18T13:24:46.798Z,0.10
2022-11-18T13:27:50.568Z,0.00
2022-11-18T13:30:44.387Z,0.00
2022-11-18T13:33:36.991Z,0.00
2022-11-18T13:36:26.257Z,0.00
2022-11-18T13:39:22.615Z,0.00
2022-11-18T13:42:17.815Z,0.00
2022-11-18T13:45:07.379Z,0.00
2022-11-18T13:47:59.868Z,-0.10
2022-11-18T13:50:52.786Z,-0.20
2022-11-18T13:53:43.034Z,-0.30
2022-11-18T13:56:35.100Z,-0.40
2022-11-18T13:59:26.016Z,-0.50
2022-11-18T14:02:15.691Z,-0.60
2022-11-18T14:05:03.648Z,-0.60
2022-11-18T14:08:06.487Z,-0.70
2022-11-18T14:10:53.889Z,-0.80
2022-11-18T14:13:52.885Z,-0.80
2022-11-18T14:16:41.509Z,-0.80
2022-11-18T14:19:30.879Z,-0.80
2022-11-18T14:22:19.880Z,-0.80
2022-11-18T14:25:18.242Z,-0.80
2022-11-18T14:28:20.234Z,-0.80
2022-11-18T14:31:23.219Z,-0.80
2022-11-18T14:34:18.775Z,-0.80
2022-11-18T14:37:10.671Z,-0.90
2022-11-18T14:39:58.788Z,-1.00
2022-11-18T14:42:46.428Z,-1.00
2022-11-18T14:45:33.550Z,-1.10
2022-11-18T14:48:28.346Z,-1.20
2022-11-18T14:51:18.626Z,-1.20
2022-11-18T14:54:05.989Z,-1.20
2022-11-18T14:56:54.425Z,-1.30
2022-11-18T14:59:41.604Z,-1.30
2022-11-18T15:02:28.869Z,-1.30
2022-11-18T15:05:17.870Z,-1.30
2022-11-18T15:08:06.124Z,-1.30
2022-11-18T15:10:53.500Z,-1.30
2022-11-18T15:13:40.905Z,-1.30
2022-11-18T15:16:29.857Z,-1.30
2022-11-18T15:19:17.605Z,-1.30
2022-11-18T15:22:06.347Z,-1.30
2022-11-18T15:24:53.797Z,-1.30
2022-11-18T15:27:41.101Z,-1.30
2022-11-18T15:30:28.630Z,-1.20
2022-11-18T15:33:16.107Z,-1.20
2022-11-18T15:36:03.620Z,-1.10
2022-11-18T15:38:52.654Z,-1.10
2022-11-18T15:41:40.722Z,-1.00
2022-11-18T15:44:28.101Z,-1.00
2022-11-18T15:47:15.554Z,-1.00
2022-11-18T15:50:02.795Z,-1.00
2022-11-18T15:52:50.075Z,-0.90
2022-11-18T15:55:38.687Z,-0.90
2022-11-18T15:58:26.619Z,-0.90
2022-11-18T16:01:15.562Z,-0.90
2022-11-18T16:04:03.043Z,-0.90
2022-11-18T16:06:50.524Z,-1.00
2022-11-18T16:09:55.025Z,-1.00
2022-11-18T16:12:50.479Z,-1.10
2022-11-18T16:15:48.327Z,-1.20
2022-11-18T16:18:40.576Z,-1.20
2022-11-18T16:21:29.226Z,-1.30
2022-11-18T16:24:17.638Z,-1.30
2022-11-18T16:27:05.241Z,-1.30
2022-11-18T16:29:53.944Z,-1.30
2022-11-18T16:32:41.339Z,-1.30
2022-11-18T16:35:29.184Z,-1.30
2022-11-18T16:38:16.361Z,-1.40
2022-11-18T16:41:23.671Z,-1.40
2022-11-18T16:44:11.987Z,-1.40
2022-11-18T16:47:01.003Z,-1.40
2022-11-18T16:49:48.385Z,-1.50
2022-11-18T16:52:35.937Z,-1.50
2022-11-18T16:55:23.363Z,-1.50
2022-11-18T16:58:11.824Z,-1.40
2022-11-18T17:04:07.861Z,-1.40
2022-11-18T17:06:55.498Z,-1.30
2022-11-18T17:09:42.876Z,-1.20
2022-11-18T17:12:30.105Z,-1.20
2022-11-18T17:15:18.001Z,-1.10
2022-11-18T17:18:05.353Z,-1.00
2022-11-18T17:20:54.197Z,-1.00
2022-11-18T17:23:42.060Z,-0.90
2022-11-18T17:26:29.621Z,-0.80
2022-11-18T17:29:17.573Z,-0.80
2022-11-18T17:32:05.378Z,-0.80
2022-11-18T17:34:54.002Z,-0.70
2022-11-18T17:37:42.911Z,-0.70
2022-11-18T17:40:30.640Z,-0.60
2022-11-18T17:43:18.341Z,-0.60
2022-11-18T17:46:05.951Z,-0.60
2022-11-18T17:48:55.088Z,-0.50
2022-11-18T17:51:42.647Z,-0.50
2022-11-18T17:54:31.697Z,-0.50
2022-11-18T17:57:19.573Z,-0.50
2022-11-18T18:00:07.665Z,-0.50
2022-11-18T18:02:55.039Z,-0.60
2022-11-18T18:05:42.293Z,-0.60
2022-11-18T18:08:29.462Z,-0.60
2022-11-18T18:11:19.517Z,-0.60
2022-11-18T18:14:14.742Z,-0.60
2022-11-18T18:17:02.245Z,-0.60
2022-11-18T18:19:49.493Z,-0.60
2022-11-18T18:22:36.842Z,-0.60
2022-11-18T18:25:24.346Z,-0.50
2022-11-18T18:28:13.410Z,-0.50
2022-11-18T18:31:01.056Z,-0.50
2022-11-18T18:33:48.593Z,-0.50
2022-11-18T18:36:36.045Z,-0.50
2022-11-18T18:39:23.849Z,-0.50
2022-11-18T18:42:11.318Z,-0.50
2022-11-18T18:45:18.378Z,-0.40
2022-11-18T18:48:06.367Z,-0.40
2022-11-18T18:50:53.714Z,-0.40
2022-11-18T18:53:41.477Z,-0.30
2022-11-18T18:56:29.167Z,-0.30
2022-11-18T18:59:16.774Z,-0.20
2022-11-18T19:02:05.545Z,-0.20
2022-11-18T19:04:53.567Z,-0.20
2022-11-18T19:07:43.023Z,-0.20
2022-11-18T19:10:30.743Z,-0.10
2022-11-18T19:13:17.032Z,-0.10
2022-11-18T19:16:05.964Z,-0.10
2022-11-18T19:18:54.852Z,-0.10
2022-11-18T19:21:42.328Z,-0.10
2022-11-18T19:24:48.517Z,-0.10
2022-11-18T19:27:38.851Z,-0.10
2022-11-18T19:30:26.268Z,-0.10
2022-11-18T19:33:13.743Z,-0.10
2022-11-18T19:36:03.898Z,-0.10
2022-11-18T19:38:51.605Z,-0.10
2022-11-18T19:41:39.046Z,-0.20
2022-11-18T19:44:26.413Z,-0.20
2022-11-18T19:47:13.947Z,-0.20
2022-11-18T19:50:01.633Z,-0.20
2022-11-18T19:52:50.363Z,-0.20
2022-11-18T19:55:38.025Z,-0.20
2022-11-18T19:58:25.828Z,-0.20
2022-11-18T20:01:14.778Z,-0.20
2022-11-18T20:04:03.159Z,-0.20
2022-11-18T20:06:50.382Z,-0.20
2022-11-18T20:09:39.079Z,-0.20
2022-11-18T20:12:26.385Z,-0.20
2022-11-18T20:15:13.554Z,-0.20
2022-11-18T20:18:01.620Z,-0.20
2022-11-18T20:20:48.969Z,-0.20
2022-11-18T20:23:37.529Z,-0.20
2022-11-18T20:26:27.480Z,-0.20
2022-11-18T20:29:15.042Z,-0.20
2022-11-18T20:32:02.447Z,-0.20
2022-11-18T20:34:49.864Z,-0.20
2022-11-18T20:37:37.074Z,-0.20
2022-11-18T20:40:24.280Z,-0.20
2022-11-18T20:43:13.099Z,-0.20
2022-11-18T20:46:00.635Z,-0.20
2022-11-18T20:48:48.098Z,-0.20
2022-11-18T20:51:35.661Z,-0.30
2022-11-18T20:54:23.371Z,-0.20
2022-11-18T20:57:10.563Z,-0.20
2022-11-18T20:59:59.180Z,-0.30
2022-11-18T21:02:46.820Z,-0.30
2022-11-18T21:05:35.595Z,-0.30
2022-11-18T21:08:22.767Z,-0.30
2022-11-18T21:11:11.660Z,-0.30
2022-11-18T21:14:22.932Z,-0.30
2022-11-18T21:17:12.670Z,-0.30
2022-11-18T21:20:20.398Z,-0.30
2022-11-18T21:23:06.727Z,-0.30
2022-11-18T21:25:54.229Z,-0.30
2022-11-18T21:28:41.700Z,-0.30
2022-11-18T21:31:29.782Z,-0.30
2022-11-18T21:34:18.945Z,-0.40
2022-11-18T21:37:06.475Z,-0.40
2022-11-18T21:39:53.746Z,-0.40
2022-11-18T21:42:41.264Z,-0.50
2022-11-18T21:45:28.849Z,-0.50
2022-11-18T21:48:16.446Z,-0.60
2022-11-18T21:51:05.991Z,-0.60
2022-11-18T21:53:53.403Z,-0.60
2022-11-18T21:56:41.077Z,-0.70
2022-11-18T21:59:28.313Z,-0.70
2022-11-18T22:02:15.521Z,-0.70
2022-11-18T22:05:06.712Z,-0.70
2022-11-18T22:07:56.060Z,-0.80
2022-11-18T22:10:46.273Z,-0.80
2022-11-18T22:13:33.667Z,-0.80
2022-11-18T22:16:22.238Z,-0.90
2022-11-18T22:19:09.642Z,-0.90
2022-11-18T22:21:56.916Z,-1.00
2022-11-18T22:24:45.758Z,-1.10
2022-11-18T22:27:33.290Z,-1.20
2022-11-18T22:30:20.766Z,-1.30
2022-11-18T22:33:08.344Z,-1.40
2022-11-18T22:35:55.640Z,-1.40
2022-11-18T22:38:43.423Z,-1.50
2022-11-18T22:41:49.612Z,-1.60
2022-11-18T22:44:37.198Z,-1.60
2022-11-18T23:00:18.865Z,-1.60
2022-11-18T23:03:06.685Z,-1.40
2022-11-18T23:05:54.260Z,-1.40
2022-11-18T23:08:43.230Z,-1.30
2022-11-18T23:11:49.373Z,-1.30
2022-11-18T23:14:36.557Z,-1.20
2022-11-18T23:17:25.498Z,-1.20
2022-11-18T23:20:13.117Z,-1.10
2022-11-18T23:23:00.564Z,-1.10
2022-11-18T23:25:48.386Z,-1.10
2022-11-18T23:28:36.178Z,-1.10
2022-11-18T23:31:24.450Z,-1.10
2022-11-18T23:34:14.141Z,-1.10
2022-11-18T23:37:01.449Z,-1.10
2022-11-18T23:39:48.609Z,-1.00
2022-11-18T23:42:35.871Z,-1.00
2022-11-18T23:45:23.240Z,-1.00
2022-11-18T23:48:10.671Z,-0.90
2022-11-18T23:51:00.308Z,-0.90
2022-11-18T23:53:49.134Z,-0.90
2022-11-18T23:56:38.283Z,-0.90
2022-11-18T23:59:25.959Z,-0.90
